sensor_id;sensor_type;location;lat;lon;timestamp;P1;durP1;ratioP1;P2;durP2;ratioP2
47403;SDS011;33157;51.508;4.288;2023-09-08T00:02:39;11.88;;;10.10;;
47403;SDS011;33157;51.508;4.288;2023-09-08T00:07:40;18.85;;;9.82;;
47403;SDS011;33157;51.508;4.288;2023-09-08T00:12:41;14.10;;;9.57;;
47403;SDS011;33157;51.508;4.288;2023-09-08T00:17:41;11.53;;;9.00;;
47403;SDS011;33157;51.508;4.288;2023-09-08T00:22:42;12.75;;;8.82;;
47403;SDS011;33157;51.508;4.288;2023-09-08T00:27:43;11.38;;;8.68;;
47403;SDS011;33157;51.508;4.288;2023-09-08T00:32:43;10.82;;;8.90;;
47403;SDS011;33157;51.508;4.288;2023-09-08T00:37:44;14.95;;;8.68;;
47403;SDS011;33157;51.508;4.288;2023-09-08T00:42:44;12.03;;;8.50;;
47403;SDS011;33157;51.508;4.288;2023-09-08T00:47:45;15.27;;;8.85;;
47403;SDS011;33157;51.508;4.288;2023-09-08T00:52:45;11.73;;;8.88;;
47403;SDS011;33157;51.508;4.288;2023-09-08T00:57:46;10.13;;;8.40;;
47403;SDS011;33157;51.508;4.288;2023-09-08T01:02:46;12.50;;;8.60;;
47403;SDS011;33157;51.508;4.288;2023-09-08T01:07:47;11.30;;;8.32;;
47403;SDS011;33157;51.508;4.288;2023-09-08T01:12:48;10.90;;;8.45;;
47403;SDS011;33157;51.508;4.288;2023-09-08T01:17:48;12.13;;;8.80;;
47403;SDS011;33157;51.508;4.288;2023-09-08T01:28:19;11.48;;;8.45;;
47403;SDS011;33157;51.508;4.288;2023-09-08T01:33:20;10.20;;;8.60;;
47403;SDS011;33157;51.508;4.288;2023-09-08T01:38:23;10.48;;;8.88;;
47403;SDS011;33157;51.508;4.288;2023-09-08T01:43:24;11.52;;;8.02;;
47403;SDS011;33157;51.508;4.288;2023-09-08T01:48:25;13.68;;;8.77;;
47403;SDS011;33157;51.508;4.288;2023-09-08T01:53:25;12.05;;;9.10;;
47403;SDS011;33157;51.508;4.288;2023-09-08T01:58:25;9.80;;;8.03;;
47403;SDS011;33157;51.508;4.288;2023-09-08T02:03:26;16.42;;;9.27;;
47403;SDS011;33157;51.508;4.288;2023-09-08T02:08:26;10.27;;;8.48;;
47403;SDS011;33157;51.508;4.288;2023-09-08T02:13:27;10.30;;;8.18;;
47403;SDS011;33157;51.508;4.288;2023-09-08T02:18:28;11.20;;;9.57;;
47403;SDS011;33157;51.508;4.288;2023-09-08T02:23:29;12.55;;;9.20;;
47403;SDS011;33157;51.508;4.288;2023-09-08T02:28:29;12.75;;;8.70;;
47403;SDS011;33157;51.508;4.288;2023-09-08T02:33:30;14.52;;;9.40;;
47403;SDS011;33157;51.508;4.288;2023-09-08T02:38:34;12.85;;;8.57;;
47403;SDS011;33157;51.508;4.288;2023-09-08T02:43:34;11.43;;;8.63;;
47403;SDS011;33157;51.508;4.288;2023-09-08T02:48:35;9.93;;;8.70;;
47403;SDS011;33157;51.508;4.288;2023-09-08T02:53:35;11.23;;;8.88;;
47403;SDS011;33157;51.508;4.288;2023-09-08T02:58:36;12.05;;;9.73;;
47403;SDS011;33157;51.508;4.288;2023-09-08T03:03:36;10.13;;;8.73;;
47403;SDS011;33157;51.508;4.288;2023-09-08T03:08:37;10.95;;;9.00;;
47403;SDS011;33157;51.508;4.288;2023-09-08T03:13:38;11.00;;;8.65;;
47403;SDS011;33157;51.508;4.288;2023-09-08T03:18:38;12.65;;;9.70;;
47403;SDS011;33157;51.508;4.288;2023-09-08T03:23:39;10.65;;;8.60;;
47403;SDS011;33157;51.508;4.288;2023-09-08T03:28:41;10.30;;;8.60;;
47403;SDS011;33157;51.508;4.288;2023-09-08T03:33:42;10.37;;;8.33;;
47403;SDS011;33157;51.508;4.288;2023-09-08T03:38:43;11.07;;;8.13;;
47403;SDS011;33157;51.508;4.288;2023-09-08T03:43:43;11.10;;;8.77;;
47403;SDS011;33157;51.508;4.288;2023-09-08T03:48:44;11.90;;;7.93;;
47403;SDS011;33157;51.508;4.288;2023-09-08T03:53:44;11.95;;;8.73;;
47403;SDS011;33157;51.508;4.288;2023-09-08T03:58:45;10.57;;;7.75;;
47403;SDS011;33157;51.508;4.288;2023-09-08T04:03:45;11.55;;;8.35;;
47403;SDS011;33157;51.508;4.288;2023-09-08T04:08:46;10.18;;;8.20;;
47403;SDS011;33157;51.508;4.288;2023-09-08T04:13:46;11.80;;;8.45;;
47403;SDS011;33157;51.508;4.288;2023-09-08T04:18:47;9.40;;;7.82;;
47403;SDS011;33157;51.508;4.288;2023-09-08T04:23:47;13.00;;;8.80;;
47403;SDS011;33157;51.508;4.288;2023-09-08T04:28:48;10.80;;;7.63;;
47403;SDS011;33157;51.508;4.288;2023-09-08T04:33:48;11.18;;;8.80;;
47403;SDS011;33157;51.508;4.288;2023-09-08T04:38:49;10.43;;;8.70;;
47403;SDS011;33157;51.508;4.288;2023-09-08T04:43:49;10.32;;;8.90;;
47403;SDS011;33157;51.508;4.288;2023-09-08T04:48:50;11.85;;;9.25;;
47403;SDS011;33157;51.508;4.288;2023-09-08T04:53:50;9.20;;;8.30;;
47403;SDS011;33157;51.508;4.288;2023-09-08T04:58:51;11.45;;;8.13;;
47403;SDS011;33157;51.508;4.288;2023-09-08T05:03:52;11.90;;;8.83;;
47403;SDS011;33157;51.508;4.288;2023-09-08T05:08:53;14.05;;;9.10;;
47403;SDS011;33157;51.508;4.288;2023-09-08T05:13:53;12.98;;;8.90;;
47403;SDS011;33157;51.508;4.288;2023-09-08T05:18:53;11.77;;;9.17;;
47403;SDS011;33157;51.508;4.288;2023-09-08T05:23:54;10.30;;;8.77;;
47403;SDS011;33157;51.508;4.288;2023-09-08T05:28:55;17.88;;;10.07;;
47403;SDS011;33157;51.508;4.288;2023-09-08T05:33:55;12.18;;;9.07;;
47403;SDS011;33157;51.508;4.288;2023-09-08T05:38:56;11.02;;;9.55;;
47403;SDS011;33157;51.508;4.288;2023-09-08T05:43:56;13.63;;;9.02;;
47403;SDS011;33157;51.508;4.288;2023-09-08T05:48:57;12.60;;;8.73;;
47403;SDS011;33157;51.508;4.288;2023-09-08T05:53:57;15.10;;;8.45;;
47403;SDS011;33157;51.508;4.288;2023-09-08T05:58:58;11.87;;;9.50;;
47403;SDS011;33157;51.508;4.288;2023-09-08T06:03:58;12.98;;;8.98;;
47403;SDS011;33157;51.508;4.288;2023-09-08T06:08:59;13.50;;;9.80;;
47403;SDS011;33157;51.508;4.288;2023-09-08T06:13:59;13.65;;;9.15;;
47403;SDS011;33157;51.508;4.288;2023-09-08T06:19:00;13.30;;;8.80;;
47403;SDS011;33157;51.508;4.288;2023-09-08T06:24:03;12.30;;;9.73;;
47403;SDS011;33157;51.508;4.288;2023-09-08T06:29:03;10.70;;;9.00;;
47403;SDS011;33157;51.508;4.288;2023-09-08T06:34:04;10.85;;;9.07;;
47403;SDS011;33157;51.508;4.288;2023-09-08T06:39:04;14.88;;;10.10;;
47403;SDS011;33157;51.508;4.288;2023-09-08T06:44:05;13.13;;;10.73;;
47403;SDS011;33157;51.508;4.288;2023-09-08T06:49:05;15.75;;;9.48;;
47403;SDS011;33157;51.508;4.288;2023-09-08T06:54:06;16.57;;;10.53;;
47403;SDS011;33157;51.508;4.288;2023-09-08T06:59:06;17.15;;;11.73;;
47403;SDS011;33157;51.508;4.288;2023-09-08T07:04:06;16.83;;;11.90;;
47403;SDS011;33157;51.508;4.288;2023-09-08T07:09:07;16.65;;;12.77;;
47403;SDS011;33157;51.508;4.288;2023-09-08T07:14:08;21.13;;;12.50;;
47403;SDS011;33157;51.508;4.288;2023-09-08T07:19:09;18.57;;;11.20;;
47403;SDS011;33157;51.508;4.288;2023-09-08T07:24:09;20.48;;;11.15;;
47403;SDS011;33157;51.508;4.288;2023-09-08T07:29:09;15.52;;;9.45;;
47403;SDS011;33157;51.508;4.288;2023-09-08T07:34:10;17.10;;;10.02;;
47403;SDS011;33157;51.508;4.288;2023-09-08T07:39:11;12.47;;;9.57;;
47403;SDS011;33157;51.508;4.288;2023-09-08T07:44:12;13.70;;;9.23;;
47403;SDS011;33157;51.508;4.288;2023-09-08T07:49:13;12.55;;;8.45;;
47403;SDS011;33157;51.508;4.288;2023-09-08T07:54:14;12.83;;;9.57;;
47403;SDS011;33157;51.508;4.288;2023-09-08T07:59:15;17.63;;;8.77;;
47403;SDS011;33157;51.508;4.288;2023-09-08T08:04:15;11.02;;;7.68;;
47403;SDS011;33157;51.508;4.288;2023-09-08T08:09:16;14.43;;;7.90;;
47403;SDS011;33157;51.508;4.288;2023-09-08T08:14:16;10.83;;;6.90;;
47403;SDS011;33157;51.508;4.288;2023-09-08T08:19:16;8.87;;;6.77;;
47403;SDS011;33157;51.508;4.288;2023-09-08T08:29:17;16.37;;;6.93;;
47403;SDS011;33157;51.508;4.288;2023-09-08T08:34:18;12.70;;;8.20;;
47403;SDS011;33157;51.508;4.288;2023-09-08T08:39:18;14.50;;;7.63;;
47403;SDS011;33157;51.508;4.288;2023-09-08T08:44:18;14.60;;;7.40;;
47403;SDS011;33157;51.508;4.288;2023-09-08T08:49:19;15.82;;;8.32;;
47403;SDS011;33157;51.508;4.288;2023-09-08T08:54:20;13.15;;;8.15;;
47403;SDS011;33157;51.508;4.288;2023-09-08T08:59:21;12.60;;;7.50;;
47403;SDS011;33157;51.508;4.288;2023-09-08T09:04:22;14.35;;;7.50;;
47403;SDS011;33157;51.508;4.288;2023-09-08T09:09:22;14.85;;;8.07;;
47403;SDS011;33157;51.508;4.288;2023-09-08T09:14:24;12.80;;;7.32;;
47403;SDS011;33157;51.508;4.288;2023-09-08T09:19:24;12.55;;;7.22;;
47403;SDS011;33157;51.508;4.288;2023-09-08T09:24:39;9.70;;;6.88;;
47403;SDS011;33157;51.508;4.288;2023-09-08T09:29:47;11.88;;;6.70;;
47403;SDS011;33157;51.508;4.288;2023-09-08T09:34:49;10.63;;;6.05;;
47403;SDS011;33157;51.508;4.288;2023-09-08T09:39:53;11.75;;;5.70;;
47403;SDS011;33157;51.508;4.288;2023-09-08T09:44:54;16.40;;;5.60;;
47403;SDS011;33157;51.508;4.288;2023-09-08T09:49:54;7.90;;;3.60;;
47403;SDS011;33157;51.508;4.288;2023-09-08T09:54:58;9.40;;;4.00;;
47403;SDS011;33157;51.508;4.288;2023-09-08T09:59:58;8.38;;;4.28;;
47403;SDS011;33157;51.508;4.288;2023-09-08T10:04:59;12.88;;;5.10;;
47403;SDS011;33157;51.508;4.288;2023-09-08T10:10:10;8.98;;;4.97;;
47403;SDS011;33157;51.508;4.288;2023-09-08T10:15:11;9.13;;;4.30;;
47403;SDS011;33157;51.508;4.288;2023-09-08T10:20:13;14.82;;;4.50;;
47403;SDS011;33157;51.508;4.288;2023-09-08T10:25:16;11.80;;;5.05;;
47403;SDS011;33157;51.508;4.288;2023-09-08T10:30:17;12.57;;;5.43;;
47403;SDS011;33157;51.508;4.288;2023-09-08T10:35:20;9.88;;;4.72;;
47403;SDS011;33157;51.508;4.288;2023-09-08T10:45:22;12.45;;;5.03;;
47403;SDS011;33157;51.508;4.288;2023-09-08T10:50:27;6.70;;;4.37;;
47403;SDS011;33157;51.508;4.288;2023-09-08T10:55:35;9.80;;;4.28;;
47403;SDS011;33157;51.508;4.288;2023-09-08T11:00:46;9.13;;;4.70;;
47403;SDS011;33157;51.508;4.288;2023-09-08T11:05:48;10.93;;;4.90;;
47403;SDS011;33157;51.508;4.288;2023-09-08T11:10:48;6.63;;;3.80;;
47403;SDS011;33157;51.508;4.288;2023-09-08T11:20:52;9.98;;;3.95;;
47403;SDS011;33157;51.508;4.288;2023-09-08T11:30:53;6.47;;;2.85;;
47403;SDS011;33157;51.508;4.288;2023-09-08T11:35:55;21.85;;;18.25;;
47403;SDS011;33157;51.508;4.288;2023-09-08T11:45:57;8.65;;;3.97;;
47403;SDS011;33157;51.508;4.288;2023-09-08T11:50:57;9.47;;;7.43;;
47403;SDS011;33157;51.508;4.288;2023-09-08T11:55:59;48.78;;;43.65;;
47403;SDS011;33157;51.508;4.288;2023-09-08T12:06:00;5.72;;;3.05;;
47403;SDS011;33157;51.508;4.288;2023-09-08T12:11:02;5.00;;;2.60;;
47403;SDS011;33157;51.508;4.288;2023-09-08T12:21:17;8.75;;;3.40;;
47403;SDS011;33157;51.508;4.288;2023-09-08T12:31:17;8.53;;;3.60;;
47403;SDS011;33157;51.508;4.288;2023-09-08T12:41:19;6.83;;;2.80;;
47403;SDS011;33157;51.508;4.288;2023-09-08T12:51:20;5.83;;;2.87;;
47403;SDS011;33157;51.508;4.288;2023-09-08T13:01:21;10.17;;;3.37;;
47403;SDS011;33157;51.508;4.288;2023-09-08T13:11:22;8.23;;;2.97;;
47403;SDS011;33157;51.508;4.288;2023-09-08T13:21:22;10.40;;;4.25;;
47403;SDS011;33157;51.508;4.288;2023-09-08T13:31:23;8.20;;;3.65;;
47403;SDS011;33157;51.508;4.288;2023-09-08T13:41:24;8.20;;;3.80;;
47403;SDS011;33157;51.508;4.288;2023-09-08T13:51:25;10.93;;;3.58;;
47403;SDS011;33157;51.508;4.288;2023-09-08T14:01:26;7.35;;;3.42;;
47403;SDS011;33157;51.508;4.288;2023-09-08T14:06:28;6.05;;;3.33;;
47403;SDS011;33157;51.508;4.288;2023-09-08T14:16:29;8.17;;;3.10;;
47403;SDS011;33157;51.508;4.288;2023-09-08T14:26:29;9.77;;;3.67;;
47403;SDS011;33157;51.508;4.288;2023-09-08T14:31:30;7.18;;;3.38;;
47403;SDS011;33157;51.508;4.288;2023-09-08T14:41:31;7.60;;;3.75;;
47403;SDS011;33157;51.508;4.288;2023-09-08T14:51:32;11.70;;;4.35;;
47403;SDS011;33157;51.508;4.288;2023-09-08T15:01:32;13.05;;;4.88;;
47403;SDS011;33157;51.508;4.288;2023-09-08T15:06:33;10.00;;;4.40;;
47403;SDS011;33157;51.508;4.288;2023-09-08T15:11:33;10.47;;;4.67;;
47403;SDS011;33157;51.508;4.288;2023-09-08T15:16:34;10.97;;;4.77;;
47403;SDS011;33157;51.508;4.288;2023-09-08T15:21:34;14.67;;;6.33;;
47403;SDS011;33157;51.508;4.288;2023-09-08T15:26:35;13.07;;;8.23;;
47403;SDS011;33157;51.508;4.288;2023-09-08T15:31:36;15.00;;;9.37;;
47403;SDS011;33157;51.508;4.288;2023-09-08T15:36:36;19.07;;;10.03;;
47403;SDS011;33157;51.508;4.288;2023-09-08T15:41:39;11.25;;;9.15;;
47403;SDS011;33157;51.508;4.288;2023-09-08T15:46:41;15.02;;;8.57;;
47403;SDS011;33157;51.508;4.288;2023-09-08T15:51:41;14.03;;;8.67;;
47403;SDS011;33157;51.508;4.288;2023-09-08T15:56:42;15.13;;;8.13;;
47403;SDS011;33157;51.508;4.288;2023-09-08T16:01:42;16.97;;;9.50;;
47403;SDS011;33157;51.508;4.288;2023-09-08T16:06:46;17.08;;;10.55;;
47403;SDS011;33157;51.508;4.288;2023-09-08T16:11:46;14.23;;;8.73;;
47403;SDS011;33157;51.508;4.288;2023-09-08T16:16:47;13.43;;;10.18;;
47403;SDS011;33157;51.508;4.288;2023-09-08T16:21:47;13.10;;;8.67;;
47403;SDS011;33157;51.508;4.288;2023-09-08T16:26:48;14.57;;;8.20;;
47403;SDS011;33157;51.508;4.288;2023-09-08T16:31:48;14.23;;;9.60;;
47403;SDS011;33157;51.508;4.288;2023-09-08T16:36:49;14.67;;;9.77;;
47403;SDS011;33157;51.508;4.288;2023-09-08T16:41:49;14.53;;;11.07;;
47403;SDS011;33157;51.508;4.288;2023-09-08T16:46:49;17.57;;;12.93;;
47403;SDS011;33157;51.508;4.288;2023-09-08T16:51:51;18.77;;;14.17;;
47403;SDS011;33157;51.508;4.288;2023-09-08T16:57:12;26.17;;;19.77;;
47403;SDS011;33157;51.508;4.288;2023-09-08T17:02:33;20.95;;;16.20;;
47403;SDS011;33157;51.508;4.288;2023-09-08T17:07:55;24.38;;;17.75;;
47403;SDS011;33157;51.508;4.288;2023-09-08T17:13:16;21.98;;;14.57;;
47403;SDS011;33157;51.508;4.288;2023-09-08T17:18:35;20.45;;;16.48;;
47403;SDS011;33157;51.508;4.288;2023-09-08T17:23:54;26.70;;;19.80;;
47403;SDS011;33157;51.508;4.288;2023-09-08T17:29:14;24.90;;;19.70;;
47403;SDS011;33157;51.508;4.288;2023-09-08T17:34:32;29.13;;;23.50;;
47403;SDS011;33157;51.508;4.288;2023-09-08T17:39:51;35.03;;;29.15;;
47403;SDS011;33157;51.508;4.288;2023-09-08T17:45:11;39.58;;;30.27;;
47403;SDS011;33157;51.508;4.288;2023-09-08T17:50:31;40.10;;;32.10;;
47403;SDS011;33157;51.508;4.288;2023-09-08T17:55:50;42.58;;;34.65;;
47403;SDS011;33157;51.508;4.288;2023-09-08T18:01:09;47.58;;;36.63;;
47403;SDS011;33157;51.508;4.288;2023-09-08T18:06:28;48.63;;;34.45;;
47403;SDS011;33157;51.508;4.288;2023-09-08T18:11:47;53.38;;;37.78;;
47403;SDS011;33157;51.508;4.288;2023-09-08T18:17:07;59.05;;;40.63;;
47403;SDS011;33157;51.508;4.288;2023-09-08T18:22:27;58.28;;;42.95;;
47403;SDS011;33157;51.508;4.288;2023-09-08T18:27:46;60.20;;;46.40;;
47403;SDS011;33157;51.508;4.288;2023-09-08T18:33:05;72.20;;;51.70;;
47403;SDS011;33157;51.508;4.288;2023-09-08T18:38:28;65.85;;;51.08;;
47403;SDS011;33157;51.508;4.288;2023-09-08T18:43:47;66.70;;;53.38;;
47403;SDS011;33157;51.508;4.288;2023-09-08T18:49:07;70.43;;;55.47;;
47403;SDS011;33157;51.508;4.288;2023-09-08T18:54:25;72.03;;;56.28;;
47403;SDS011;33157;51.508;4.288;2023-09-08T18:59:48;70.50;;;55.65;;
47403;SDS011;33157;51.508;4.288;2023-09-08T19:05:08;64.30;;;54.65;;
47403;SDS011;33157;51.508;4.288;2023-09-08T19:10:27;64.38;;;55.35;;
47403;SDS011;33157;51.508;4.288;2023-09-08T19:15:47;72.38;;;57.20;;
47403;SDS011;33157;51.508;4.288;2023-09-08T19:21:06;70.65;;;56.95;;
47403;SDS011;33157;51.508;4.288;2023-09-08T19:26:26;71.20;;;57.53;;
47403;SDS011;33157;51.508;4.288;2023-09-08T19:31:45;67.25;;;55.88;;
47403;SDS011;33157;51.508;4.288;2023-09-08T19:37:04;76.53;;;62.72;;
47403;SDS011;33157;51.508;4.288;2023-09-08T19:42:23;91.68;;;69.55;;
47403;SDS011;33157;51.508;4.288;2023-09-08T19:47:42;82.25;;;68.82;;
47403;SDS011;33157;51.508;4.288;2023-09-08T19:53:01;85.07;;;69.10;;
47403;SDS011;33157;51.508;4.288;2023-09-08T19:58:20;94.80;;;73.38;;
47403;SDS011;33157;51.508;4.288;2023-09-08T20:03:39;92.63;;;75.70;;
47403;SDS011;33157;51.508;4.288;2023-09-08T20:08:59;98.60;;;81.35;;
47403;SDS011;33157;51.508;4.288;2023-09-08T20:14:18;97.20;;;77.35;;
47403;SDS011;33157;51.508;4.288;2023-09-08T20:19:37;99.75;;;81.70;;
47403;SDS011;33157;51.508;4.288;2023-09-08T20:24:56;116.53;;;91.47;;
47403;SDS011;33157;51.508;4.288;2023-09-08T20:30:15;113.88;;;90.20;;
47403;SDS011;33157;51.508;4.288;2023-09-08T20:35:35;117.50;;;90.53;;
47403;SDS011;33157;51.508;4.288;2023-09-08T20:40:54;119.80;;;97.32;;
47403;SDS011;33157;51.508;4.288;2023-09-08T20:46:13;125.82;;;100.72;;
47403;SDS011;33157;51.508;4.288;2023-09-08T20:51:32;124.05;;;100.82;;
47403;SDS011;33157;51.508;4.288;2023-09-08T20:56:52;123.38;;;98.18;;
47403;SDS011;33157;51.508;4.288;2023-09-08T21:02:12;136.25;;;106.18;;
47403;SDS011;33157;51.508;4.288;2023-09-08T21:07:32;142.57;;;108.25;;
47403;SDS011;33157;51.508;4.288;2023-09-08T21:12:51;131.50;;;106.88;;
47403;SDS011;33157;51.508;4.288;2023-09-08T21:18:10;136.98;;;110.82;;
47403;SDS011;33157;51.508;4.288;2023-09-08T21:23:30;141.07;;;107.38;;
47403;SDS011;33157;51.508;4.288;2023-09-08T21:28:49;143.23;;;112.60;;
47403;SDS011;33157;51.508;4.288;2023-09-08T21:34:08;138.63;;;108.47;;
47403;SDS011;33157;51.508;4.288;2023-09-08T21:39:27;137.60;;;108.57;;
47403;SDS011;33157;51.508;4.288;2023-09-08T21:44:46;150.35;;;115.95;;
47403;SDS011;33157;51.508;4.288;2023-09-08T21:50:05;155.27;;;117.18;;
47403;SDS011;33157;51.508;4.288;2023-09-08T21:55:24;147.00;;;114.22;;
47403;SDS011;33157;51.508;4.288;2023-09-08T22:00:44;148.63;;;114.10;;
47403;SDS011;33157;51.508;4.288;2023-09-08T22:06:02;140.18;;;111.68;;
47403;SDS011;33157;51.508;4.288;2023-09-08T22:11:22;146.23;;;112.90;;
47403;SDS011;33157;51.508;4.288;2023-09-08T22:16:22;152.35;;;115.75;;
47403;SDS011;33157;51.508;4.288;2023-09-08T22:21:28;156.25;;;118.88;;
47403;SDS011;33157;51.508;4.288;2023-09-08T22:26:29;160.55;;;119.55;;
47403;SDS011;33157;51.508;4.288;2023-09-08T22:31:29;158.95;;;121.57;;
47403;SDS011;33157;51.508;4.288;2023-09-08T22:36:30;160.50;;;119.47;;
47403;SDS011;33157;51.508;4.288;2023-09-08T22:41:31;158.23;;;118.85;;
47403;SDS011;33157;51.508;4.288;2023-09-08T22:46:31;177.02;;;125.28;;
47403;SDS011;33157;51.508;4.288;2023-09-08T22:51:32;170.82;;;124.82;;
47403;SDS011;33157;51.508;4.288;2023-09-08T22:56:33;164.88;;;121.38;;
47403;SDS011;33157;51.508;4.288;2023-09-08T23:01:34;164.70;;;121.47;;
47403;SDS011;33157;51.508;4.288;2023-09-08T23:06:34;174.90;;;127.50;;
47403;SDS011;33157;51.508;4.288;2023-09-08T23:11:35;165.65;;;122.85;;
47403;SDS011;33157;51.508;4.288;2023-09-08T23:16:35;153.80;;;114.30;;
47403;SDS011;33157;51.508;4.288;2023-09-08T23:21:36;160.48;;;115.25;;
47403;SDS011;33157;51.508;4.288;2023-09-08T23:26:37;157.48;;;113.72;;
47403;SDS011;33157;51.508;4.288;2023-09-08T23:31:37;167.13;;;119.88;;
47403;SDS011;33157;51.508;4.288;2023-09-08T23:36:38;170.57;;;120.80;;
47403;SDS011;33157;51.508;4.288;2023-09-08T23:41:39;178.52;;;125.50;;
47403;SDS011;33157;51.508;4.288;2023-09-08T23:46:40;179.20;;;124.03;;
47403;SDS011;33157;51.508;4.288;2023-09-08T23:51:40;174.23;;;124.50;;
47403;SDS011;33157;51.508;4.288;2023-09-08T23:56:41;190.50;;;129.52;;
